Flight Track Log - Related Links

Times and Time Zones

All times are in EDT time to prevent confusion due to time zone crossing. See the CCA4121 flight status page for this flight to view local times or setup timezone preferences in your user account.


Time Position Orientation Groundspeed Altitude Reporting Facility
EDT Latitude Longitude Course Direction KTS MPH feet Rate Location/Type
Sun 01:17:00 PM 33.0949 104.0400 51° Northeast  Level Estimated
Sun 01:18:00 PM 33.1543 104.1295 52° Northeast  Level Estimated
Sun 01:19:00 PM 33.2135 104.2192 52° Northeast  Level Estimated
Sun 01:20:00 PM 33.2727 104.3089 52° Northeast  Level Estimated
Sun 01:21:00 PM 33.3318 104.3988 52° Northeast  Level Estimated
Sun 01:22:00 PM 33.3909 104.4889 52° Northeast  Level Estimated
Sun 01:23:00 PM 33.4499 104.5790 52° Northeast  Level Estimated
Sun 01:24:00 PM 33.5089 104.6693 52° Northeast  Level Estimated
Sun 01:25:00 PM 33.5677 104.7597 52° Northeast  Level Estimated
Sun 01:26:00 PM 33.6265 104.8502 52° Northeast  Level Estimated
Sun 01:27:00 PM 33.6853 104.9409 52° Northeast  Level Estimated
Sun 01:28:00 PM 33.7439 105.0316 52° Northeast  Level Estimated
Sun 01:29:00 PM 33.8025 105.1225 52° Northeast  Level Estimated
Sun 01:30:00 PM 33.8611 105.2135 52° Northeast  Level Estimated
Sun 01:31:00 PM 33.9196 105.3047 52° Northeast  Level Estimated
Sun 01:32:00 PM 33.9780 105.3960 52° Northeast  Level Estimated
Sun 01:33:00 PM 34.0363 105.4873 52° Northeast  Level Estimated
Sun 01:34:00 PM 34.0946 105.5789 52° Northeast  Level Estimated
Sun 01:35:00 PM 34.1528 105.6705 52° Northeast  Level Estimated
Sun 01:36:00 PM 34.2109 105.7623 53° Northeast  Level Estimated
Sun 01:37:00 PM 34.2690 105.8542 53° Northeast  Level Estimated
Sun 01:38:00 PM 34.3270 105.9462 53° Northeast  Level Estimated
Sun 01:39:00 PM 34.3849 106.0383 53° Northeast  Level Estimated
Sun 01:40:00 PM 34.4427 106.1306 53° Northeast  Level Estimated
Sun 01:41:00 PM 34.5005 106.2230 53° Northeast  Level Estimated
Sun 01:42:00 PM 34.5583 106.3156 53° Northeast  Level Estimated
Sun 01:43:00 PM 34.6159 106.4082 53° Northeast  Level Estimated
Sun 01:44:00 PM 34.6735 106.5010 53° Northeast  Level Estimated
Sun 01:45:00 PM 34.7310 106.5939 53° Northeast  Level Estimated
Sun 01:46:00 PM 34.7884 106.6870 53° Northeast  Level Estimated
Sun 01:47:00 PM 34.8458 106.7802 53° Northeast  Level Estimated
Sun 01:48:00 PM 34.9031 106.8735 53° Northeast  Level Estimated
Sun 01:49:00 PM 34.9603 106.9669 53° Northeast  Level Estimated
Sun 01:50:00 PM 35.0175 107.0605 53° Northeast  Level Estimated
Sun 01:51:00 PM 35.0746 107.1542 53° Northeast  Level Estimated
Sun 01:52:00 PM 35.1316 107.2480 53° Northeast  Level Estimated
Sun 01:53:00 PM 35.1885 107.3420 53° Northeast  Level Estimated
Sun 01:54:00 PM 35.2454 107.4361 53° Northeast  Level Estimated
Sun 01:55:00 PM 35.3022 107.5303 54° Northeast  Level Estimated
Sun 01:56:00 PM 35.3589 107.6246 54° Northeast  Level Estimated
Sun 01:57:00 PM 35.4155 107.7191 54° Northeast  Level Estimated
Sun 01:58:00 PM 35.4721 107.8138 54° Northeast  Level Estimated
Sun 01:59:00 PM 35.5286 107.9085 54° Northeast  Level Estimated
Sun 02:00:00 PM 35.5850 108.0034 54° Northeast  Level Estimated
Sun 02:01:00 PM 35.6413 108.0984 54° Northeast  Level Estimated
Sun 02:02:00 PM 35.6976 108.1936 54° Northeast  Level Estimated
Sun 02:03:00 PM 35.7538 108.2889 54° Northeast  Level Estimated
Sun 02:04:00 PM 35.8099 108.3843 54° Northeast  Level Estimated
Sun 02:05:00 PM 35.8660 108.4799 54° Northeast  Level Estimated
Sun 02:06:00 PM 35.9220 108.5756 54° Northeast  Level Estimated
Sun 02:07:00 PM 35.9779 108.6714 54° Northeast  Level Estimated
Sun 02:08:00 PM 36.0337 108.7674 54° Northeast  Level Estimated
Sun 02:09:00 PM 36.0894 108.8635 54° Northeast  Level Estimated
Sun 02:10:00 PM 36.1451 108.9597 54° Northeast  Level Estimated
Sun 02:11:00 PM 36.2007 109.0561 54° Northeast  Level Estimated
Sun 02:12:00 PM 36.2562 109.1526 54° Northeast  Level Estimated
Sun 02:13:00 PM 36.3116 109.2492 55° Northeast  Level Estimated
Sun 02:14:00 PM 36.3670 109.3460 55° Northeast  Level Estimated
Sun 02:15:00 PM 36.4222 109.4430 55° Northeast  Level Estimated
Sun 02:16:00 PM 36.4775 109.5400 55° Northeast  Level Estimated
Sun 02:17:00 PM 36.5326 109.6372 55° Northeast  Level Estimated
Sun 02:18:00 PM 36.5876 109.7346 55° Northeast  Level Estimated
Sun 02:19:00 PM 36.6426 109.8320 55° Northeast  Level Estimated
Sun 02:20:00 PM 36.6974 109.9297 55° Northeast  Level Estimated
Sun 02:21:00 PM 36.7523 110.0274 55° Northeast  Level Estimated
Sun 02:22:00 PM 36.8070 110.1253 55° Northeast  Level Estimated
Sun 02:23:00 PM 36.8616 110.2234 55° Northeast  Level Estimated
Sun 02:24:00 PM 36.9162 110.3215 55° Northeast  Level Estimated
Sun 02:25:00 PM 36.9706 110.4199 55° Northeast  Level Estimated
Sun 02:26:00 PM 37.0251 110.5183 55° Northeast  Level Estimated
Sun 02:27:00 PM 37.0794 110.6169 55° Northeast  Level Estimated
Sun 02:28:00 PM 37.1336 110.7157 55° Northeast  Level Estimated
Sun 02:29:00 PM 37.1878 110.8145 55° Northeast  Level Estimated
Sun 02:30:00 PM 37.2418 110.9136 56° Northeast  Level Estimated
Sun 02:31:00 PM 37.2958 111.0127 56° Northeast  Level Estimated
Sun 02:32:00 PM 37.3497 111.1121 56° Northeast  Level Estimated
Sun 02:33:00 PM 37.4035 111.2115 56° Northeast  Level Estimated
Sun 02:34:00 PM 37.4573 111.3111 56° Northeast  Level Estimated
Sun 02:35:00 PM 37.5109 111.4108 56° Northeast  Level Estimated
Sun 02:36:00 PM 37.5645 111.5107 56° Northeast  Level Estimated
Sun 02:37:00 PM 37.6180 111.6107 56° Northeast  Level Estimated
Sun 02:38:00 PM 37.6714 111.7109 56° Northeast  Level Estimated
Sun 02:39:00 PM 37.7247 111.8112 56° Northeast  Level Estimated
Sun 02:40:00 PM 37.7780 111.9117 56° Northeast  Level Estimated
Sun 02:41:00 PM 37.8311 112.0123 56° Northeast  Level Estimated
Sun 02:42:00 PM 37.8842 112.1130 56° Northeast  Level Estimated
Sun 02:43:00 PM 37.9371 112.2139 56° Northeast  Level Estimated
Sun 02:44:00 PM 37.9900 112.3150 56° Northeast  Level Estimated
Sun 02:45:00 PM 38.0428 112.4161 56° Northeast  Level Estimated
Sun 02:46:00 PM 38.0956 112.5175 57° Northeast  Level Estimated
Sun 02:47:00 PM 38.1482 112.6189 57° Northeast  Level Estimated
Sun 02:48:00 PM 38.2007 112.7206 57° Northeast  Level Estimated
Sun 02:49:00 PM 38.2532 112.8223 57° Northeast  Level Estimated
Sun 02:50:00 PM 38.3055 112.9243 57° Northeast  Level Estimated
Sun 02:51:00 PM 38.3578 113.0263 57° Northeast  Level Estimated
Sun 02:52:00 PM 38.4100 113.1285 57° Northeast  Level Estimated
Sun 02:53:00 PM 38.4621 113.2309 57° Northeast  Level Estimated
Sun 02:54:00 PM 38.5141 113.3334 57° Northeast  Level Estimated
Sun 02:55:00 PM 38.5661 113.4361 57° Northeast  Level Estimated
Sun 02:56:00 PM 38.6179 113.5388 57° Northeast  Level Estimated
Sun 02:57:00 PM 38.6696 113.6418 57° Northeast  Level Estimated
Sun 02:58:00 PM 38.7213 113.7449 57° Northeast  Level Estimated
Sun 02:59:00 PM 38.7728 113.8482 57° Northeast  Level Estimated
Sun 03:00:00 PM 38.8243 113.9516 57° Northeast  Level Estimated
Sun 03:01:00 PM 38.8757 114.0551 57° Northeast  Level Estimated
Sun 03:02:00 PM 38.9270 114.1588 58° Northeast  Level Estimated
Sun 03:03:00 PM 38.9782 114.2626 58° Northeast  Level Estimated
Sun 03:04:00 PM 39.0293 114.3667 58° Northeast  Level Estimated
Sun 03:05:00 PM 39.0803 114.4708 58° Northeast  Level Estimated
Sun 03:06:00 PM 39.1312 114.5751 58° Northeast  Level Estimated
Sun 03:07:00 PM 39.1820 114.6796 58° Northeast  Level Estimated
Sun 03:08:00 PM 39.2327 114.7841 58° Northeast  Level Estimated
Sun 03:09:00 PM 39.2834 114.8889 58° Northeast  Level Estimated
Sun 03:10:00 PM 39.3339 114.9938 58° Northeast  Level Estimated
Sun 03:11:00 PM 39.3844 115.0988 58° Northeast  Level Estimated
Sun 03:12:00 PM 39.4347 115.2041 58° Northeast  Level Estimated
Sun 03:13:00 PM 39.4850 115.3094 58° Northeast  Level Estimated
Sun 03:14:00 PM 39.5352 115.4149 58° Northeast  Level Estimated
Sun 03:15:00 PM 39.5852 115.5206 58° Northeast  Level Estimated
Sun 03:16:00 PM 39.6352 115.6264 58° Northeast  Level Estimated
Sun 03:17:00 PM 39.6851 115.7324 59° Northeast  Level Estimated
Sun 03:18:00 PM 39.7349 115.8385 59° Northeast  Level Estimated
Sun 03:19:00 PM 39.7845 115.9448 59° Northeast  Level Estimated
Sun 03:20:00 PM 39.8341 116.0512 59° Northeast  Level Estimated
Sun 03:21:00 PM 39.8836 116.1578 59° Northeast  Level Estimated
Sun 03:22:00 PM 39.9330 116.2645 59° Northeast  Level Estimated
Sun 03:23:00 PM 39.9823 116.3714 59° Northeast  Level Estimated

Login

Don't have an account? Register now (free) for customized features, flight alerts, and more!